createdAt,value
2022-08-08T00:01:06.755Z,4.43
2022-08-08T00:03:50.695Z,4.47
2022-08-08T00:06:35.719Z,4.93
2022-08-08T00:09:08.961Z,6.07
2022-08-08T00:12:08.085Z,6.63
2022-08-08T00:15:08.228Z,5.53
2022-08-08T00:17:58.541Z,8.38
2022-08-08T00:20:29.691Z,5.75
2022-08-08T00:23:01.466Z,4.97
2022-08-08T00:25:39.284Z,5.40
2022-08-08T00:28:33.943Z,5.90
2022-08-08T00:32:15.587Z,7.00
2022-08-08T00:35:09.183Z,5.57
2022-08-08T00:38:16.861Z,6.53
2022-08-08T00:41:17.039Z,7.13
2022-08-08T00:44:02.726Z,5.25
2022-08-08T00:46:57.636Z,4.57
2022-08-08T00:49:50.369Z,4.20
2022-08-08T00:52:48.415Z,5.30
2022-08-08T00:55:54.946Z,6.00
2022-08-08T00:58:33.551Z,4.68
2022-08-08T01:01:07.413Z,6.07
2022-08-08T01:04:14.169Z,5.20
2022-08-08T01:06:48.220Z,7.53
2022-08-08T01:09:41.151Z,4.85
2022-08-08T01:12:29.859Z,6.60
2022-08-08T01:15:44.370Z,5.70
2022-08-08T01:18:52.385Z,9.45
2022-08-08T01:22:12.607Z,5.80
2022-08-08T01:25:05.078Z,6.32
2022-08-08T01:28:14.962Z,5.75
2022-08-08T01:30:54.050Z,7.00
2022-08-08T01:34:00.322Z,6.43
2022-08-08T01:36:36.659Z,6.55
2022-08-08T01:39:24.131Z,5.07
2022-08-08T01:41:59.884Z,5.43
2022-08-08T01:44:56.091Z,5.05
2022-08-08T01:48:23.321Z,5.47
2022-08-08T01:51:00.584Z,5.80
2022-08-08T01:54:33.042Z,8.48
2022-08-08T01:56:37.347Z,6.43
2022-08-08T01:59:09.208Z,6.65
2022-08-08T02:02:02.961Z,7.97
2022-08-08T02:04:43.319Z,10.23
2022-08-08T02:07:16.956Z,9.40
2022-08-08T02:10:29.323Z,8.75
2022-08-08T02:13:15.875Z,6.65
2022-08-08T02:16:10.621Z,8.50
2022-08-08T02:19:56.898Z,8.52
2022-08-08T02:22:28.373Z,6.93
2022-08-08T02:25:43.614Z,8.45
2022-08-08T02:28:35.388Z,9.15
2022-08-08T02:31:19.587Z,9.50
2022-08-08T02:34:32.666Z,11.57
2022-08-08T02:37:09.966Z,11.43
2022-08-08T02:40:19.270Z,7.03
2022-08-08T02:44:38.224Z,12.43
2022-08-08T02:46:34.210Z,8.73
2022-08-08T02:49:09.742Z,11.50
2022-08-08T02:51:59.776Z,8.95
2022-08-08T02:54:41.979Z,11.32
2022-08-08T02:57:26.846Z,9.57
2022-08-08T03:00:31.142Z,7.65
2022-08-08T03:03:46.058Z,11.20
2022-08-08T03:06:40.626Z,10.18
2022-08-08T03:09:45.033Z,8.30
2022-08-08T03:13:02.002Z,10.68
2022-08-08T03:16:04.036Z,13.70
2022-08-08T03:18:52.166Z,12.68
2022-08-08T03:21:18.874Z,11.93
2022-08-08T03:23:59.612Z,13.52
2022-08-08T03:26:31.089Z,14.77
2022-08-08T03:29:03.446Z,14.98
2022-08-08T03:32:06.518Z,16.85
2022-08-08T03:34:34.836Z,18.73
2022-08-08T03:37:20.208Z,20.08
2022-08-08T03:40:00.696Z,13.73
2022-08-08T03:42:38.455Z,12.70
2022-08-08T03:46:04.765Z,13.10
2022-08-08T03:48:21.128Z,9.80
2022-08-08T03:50:57.042Z,10.63
2022-08-08T03:53:42.675Z,10.48
2022-08-08T03:56:31.987Z,10.05
2022-08-08T03:58:59.387Z,9.20
2022-08-08T04:02:12.779Z,9.57
2022-08-08T04:04:23.133Z,12.45
2022-08-08T04:07:01.233Z,11.77
2022-08-08T04:09:57.416Z,14.02
2022-08-08T04:12:15.660Z,12.35
2022-08-08T04:14:44.968Z,15.38
2022-08-08T04:17:22.402Z,20.55
2022-08-08T04:19:58.897Z,15.68
2022-08-08T04:22:29.474Z,17.40
2022-08-08T04:24:56.694Z,12.10
2022-08-08T04:28:02.832Z,15.82
2022-08-08T04:30:17.200Z,15.38
2022-08-08T04:32:48.211Z,16.13
2022-08-08T04:35:18.445Z,17.55
2022-08-08T04:37:49.495Z,12.73
2022-08-08T04:40:18.253Z,19.50
2022-08-08T04:42:55.839Z,14.40
2022-08-08T04:45:27.438Z,18.58
2022-08-08T04:47:57.230Z,13.75
2022-08-08T04:50:32.640Z,12.68
2022-08-08T04:53:13.664Z,12.23
2022-08-08T04:55:55.881Z,10.68
2022-08-08T04:58:23.377Z,10.32
2022-08-08T05:00:51.824Z,12.18
2022-08-08T05:04:08.290Z,9.63
2022-08-08T05:06:13.207Z,10.98
2022-08-08T05:08:46.008Z,8.98
2022-08-08T05:11:23.826Z,9.93
2022-08-08T05:13:57.794Z,11.20
2022-08-08T05:16:55.394Z,11.77
2022-08-08T05:20:12.405Z,10.65
2022-08-08T05:22:02.342Z,9.32
2022-08-08T05:24:30.932Z,8.13
2022-08-08T05:26:58.262Z,9.63
2022-08-08T05:29:29.063Z,9.45
2022-08-08T05:32:03.689Z,8.98
2022-08-08T05:34:47.280Z,8.48
2022-08-08T05:37:39.397Z,11.32
2022-08-08T05:40:11.499Z,9.63
2022-08-08T05:42:44.057Z,8.10
2022-08-08T05:45:25.263Z,9.63
2022-08-08T05:48:00.654Z,8.20
2022-08-08T05:50:36.328Z,8.20
2022-08-08T05:53:54.244Z,8.55
2022-08-08T05:56:10.558Z,7.20
2022-08-08T05:58:56.779Z,7.18
2022-08-08T06:01:55.492Z,8.68
2022-08-08T06:04:23.407Z,8.35
2022-08-08T06:06:56.801Z,10.18
2022-08-08T06:09:58.298Z,8.40
2022-08-08T06:12:30.506Z,8.25
2022-08-08T06:15:00.250Z,8.60
2022-08-08T06:17:50.242Z,6.97
2022-08-08T06:20:16.299Z,8.50
2022-08-08T06:22:43.056Z,6.88
2022-08-08T06:25:10.347Z,7.78
2022-08-08T06:27:48.955Z,7.45
2022-08-08T06:30:19.800Z,8.70
2022-08-08T06:32:54.810Z,8.03
2022-08-08T06:36:03.965Z,6.97
2022-08-08T06:38:14.017Z,8.10
2022-08-08T06:40:48.406Z,7.82
2022-08-08T06:43:19.981Z,7.75
2022-08-08T06:45:56.169Z,9.05
2022-08-08T06:48:26.773Z,7.82
2022-08-08T06:50:54.125Z,5.90
2022-08-08T06:53:21.082Z,8.57
2022-08-08T06:56:02.853Z,10.88
2022-08-08T06:58:33.245Z,6.63
2022-08-08T07:01:11.743Z,5.32
2022-08-08T07:04:37.535Z,5.20
2022-08-08T07:06:43.199Z,5.43
2022-08-08T07:09:17.868Z,5.30
2022-08-08T07:11:51.855Z,6.10
2022-08-08T07:14:25.119Z,5.15
2022-08-08T07:17:18.994Z,5.28
2022-08-08T07:19:49.463Z,7.00
2022-08-08T07:22:46.240Z,6.65
2022-08-08T07:25:14.380Z,9.00
2022-08-08T07:28:02.882Z,7.82
2022-08-08T07:30:35.078Z,11.70
2022-08-08T07:33:01.794Z,6.15
2022-08-08T07:35:38.076Z,6.28
2022-08-08T07:38:20.405Z,6.78
2022-08-08T07:40:49.128Z,4.88
2022-08-08T07:43:17.174Z,6.43
2022-08-08T07:46:17.542Z,8.25
2022-08-08T07:48:45.982Z,4.90
2022-08-08T07:51:23.124Z,6.07
2022-08-08T07:54:24.117Z,8.15
2022-08-08T07:56:59.975Z,5.80
2022-08-08T07:59:37.870Z,6.88
2022-08-08T08:02:36.671Z,7.57
2022-08-08T08:04:57.112Z,8.25
2022-08-08T08:07:32.058Z,9.40
2022-08-08T08:10:04.502Z,7.65
2022-08-08T08:12:43.063Z,5.63
2022-08-08T08:15:15.706Z,6.03
2022-08-08T08:17:48.928Z,4.72
2022-08-08T08:20:22.163Z,5.53
2022-08-08T08:22:57.241Z,4.25
2022-08-08T08:25:43.034Z,7.40
2022-08-08T08:28:10.754Z,3.40
2022-08-08T08:30:43.815Z,4.93
2022-08-08T08:33:12.572Z,7.25
2022-08-08T08:36:19.797Z,4.68
2022-08-08T08:38:26.707Z,5.40
2022-08-08T08:40:53.854Z,4.88
2022-08-08T08:43:26.790Z,5.18
2022-08-08T08:45:57.296Z,4.70
2022-08-08T08:48:25.008Z,6.00
2022-08-08T08:50:53.481Z,4.15
2022-08-08T08:53:54.113Z,3.85
2022-08-08T08:56:08.505Z,5.03
2022-08-08T08:58:42.203Z,4.07
2022-08-08T09:01:14.931Z,6.60
2022-08-08T09:03:45.920Z,6.32
2022-08-08T09:06:33.495Z,5.45
2022-08-08T09:09:26.111Z,6.57
2022-08-08T09:12:08.139Z,4.47
2022-08-08T09:14:35.703Z,5.28
2022-08-08T09:17:15.820Z,4.63
2022-08-08T09:21:59.386Z,8.55
2022-08-08T09:22:34.544Z,4.82
2022-08-08T09:25:02.033Z,6.43
2022-08-08T09:27:50.806Z,5.88
2022-08-08T09:30:22.008Z,4.43
2022-08-08T09:33:12.614Z,4.38
2022-08-08T09:35:50.098Z,4.53
2022-08-08T09:38:35.910Z,3.75
2022-08-08T09:41:28.257Z,3.67
2022-08-08T09:44:13.115Z,6.35
2022-08-08T09:46:57.170Z,3.03
2022-08-08T09:49:42.124Z,4.45
2022-08-08T09:52:55.776Z,3.38
2022-08-08T09:55:10.117Z,3.20
2022-08-08T09:57:55.787Z,3.20
2022-08-08T10:00:53.057Z,3.75
2022-08-08T10:03:15.241Z,3.70
2022-08-08T10:05:47.060Z,3.70
2022-08-08T10:08:13.755Z,3.27
2022-08-08T10:10:50.844Z,2.97
2022-08-08T10:13:25.919Z,3.17
2022-08-08T10:16:01.919Z,3.08
2022-08-08T10:18:35.848Z,3.28
2022-08-08T10:21:25.495Z,2.47
2022-08-08T10:23:58.691Z,4.28
2022-08-08T10:26:31.058Z,4.55
2022-08-08T10:29:20.811Z,3.63
2022-08-08T10:32:08.482Z,2.97
2022-08-08T10:34:38.195Z,4.30
2022-08-08T10:37:06.953Z,3.55
2022-08-08T10:39:54.055Z,2.65
2022-08-08T10:42:27.328Z,4.00
2022-08-08T10:45:08.859Z,4.38
2022-08-08T10:47:43.040Z,4.32
2022-08-08T10:50:15.360Z,4.90
2022-08-08T10:52:42.361Z,5.70
2022-08-08T10:55:15.613Z,3.25
2022-08-08T10:58:05.852Z,5.32
2022-08-08T11:00:39.243Z,3.60
2022-08-08T11:03:19.291Z,4.55
2022-08-08T11:06:07.006Z,4.90
2022-08-08T11:08:53.458Z,5.50
2022-08-08T11:12:00.148Z,6.35
2022-08-08T11:14:08.614Z,4.13
2022-08-08T11:16:46.540Z,5.28
2022-08-08T11:19:15.630Z,3.20
2022-08-08T11:21:54.208Z,5.10
2022-08-08T11:24:25.809Z,5.07
2022-08-08T11:26:56.704Z,4.45
2022-08-08T11:29:41.918Z,4.80
2022-08-08T11:32:14.180Z,3.27
2022-08-08T11:35:29.473Z,3.97
2022-08-08T11:38:34.214Z,4.22
2022-08-08T11:40:21.461Z,4.50
2022-08-08T11:42:52.399Z,5.85
2022-08-08T11:48:02.684Z,4.03
2022-08-08T11:50:33.824Z,3.85
2022-08-08T11:53:01.420Z,5.82
2022-08-08T11:55:36.257Z,4.13
2022-08-08T11:58:14.350Z,4.78
2022-08-08T12:00:50.640Z,3.78
2022-08-08T12:03:21.215Z,3.67
2022-08-08T12:05:48.569Z,5.60
2022-08-08T12:08:15.515Z,3.28
2022-08-08T12:10:52.450Z,4.68
2022-08-08T12:13:33.584Z,3.63
2022-08-08T12:16:13.497Z,4.65
2022-08-08T12:18:48.481Z,5.03
2022-08-08T12:21:25.917Z,3.00
2022-08-08T12:24:15.687Z,4.00
2022-08-08T12:26:52.651Z,4.03
2022-08-08T12:29:25.982Z,6.80
2022-08-08T12:32:17.080Z,3.97
2022-08-08T12:35:18.022Z,4.47
2022-08-08T12:38:01.478Z,4.75
2022-08-08T12:40:54.319Z,4.72
2022-08-08T12:43:47.814Z,2.72
2022-08-08T12:46:26.685Z,4.47
2022-08-08T12:49:25.576Z,3.20
2022-08-08T12:54:25.707Z,5.30
2022-08-08T12:56:55.818Z,3.67
2022-08-08T12:59:44.619Z,3.67
2022-08-08T13:02:22.665Z,3.50
2022-08-08T13:04:59.409Z,3.22
2022-08-08T13:08:03.050Z,3.50
2022-08-08T13:10:33.000Z,4.05
2022-08-08T13:13:06.029Z,3.90
2022-08-08T13:15:35.858Z,4.50
2022-08-08T13:18:10.702Z,3.80
2022-08-08T13:20:45.506Z,5.00
2022-08-08T13:23:41.347Z,5.20
2022-08-08T13:26:16.047Z,4.35
2022-08-08T13:28:45.878Z,5.00
2022-08-08T13:31:16.730Z,4.28
2022-08-08T13:33:46.340Z,4.20
2022-08-08T13:36:14.387Z,3.13
2022-08-08T13:38:43.775Z,3.38
2022-08-08T13:41:16.923Z,5.25
2022-08-08T13:43:50.712Z,3.47
2022-08-08T13:46:26.434Z,4.47
2022-08-08T13:49:11.618Z,5.25
2022-08-08T13:52:02.446Z,3.70
2022-08-08T13:54:34.647Z,4.80
2022-08-08T13:57:08.523Z,3.78
2022-08-08T13:59:39.696Z,4.72
2022-08-08T14:02:22.325Z,8.35
2022-08-08T14:05:04.678Z,4.35
2022-08-08T14:07:39.698Z,4.05
2022-08-08T14:10:17.149Z,5.95
2022-08-08T14:12:46.693Z,4.07
2022-08-08T14:15:46.472Z,4.75
2022-08-08T14:18:37.075Z,4.05
2022-08-08T14:21:14.919Z,6.72
2022-08-08T14:24:06.501Z,7.10
2022-08-08T14:26:46.212Z,4.43
2022-08-08T14:29:28.077Z,5.05
2022-08-08T14:32:10.937Z,3.75
2022-08-08T14:34:42.819Z,5.63
2022-08-08T14:37:13.135Z,4.30
2022-08-08T14:39:53.861Z,4.60
2022-08-08T14:42:55.213Z,3.78
2022-08-08T14:45:29.043Z,3.85
2022-08-08T14:48:04.524Z,3.63
2022-08-08T14:50:38.448Z,7.20
2022-08-08T14:53:13.713Z,3.83
2022-08-08T14:55:43.398Z,6.57
2022-08-08T14:58:11.926Z,6.88
2022-08-08T15:00:44.418Z,6.25
2022-08-08T15:03:16.254Z,4.63
2022-08-08T15:05:52.740Z,4.97
2022-08-08T15:11:04.476Z,4.40
2022-08-08T15:13:39.854Z,9.15
2022-08-08T15:16:11.695Z,4.80
2022-08-08T15:18:40.057Z,6.15
2022-08-08T15:21:10.962Z,4.53
2022-08-08T15:23:39.498Z,4.63
2022-08-08T15:26:10.880Z,2.80
2022-08-08T15:28:39.715Z,4.60
2022-08-08T15:31:06.390Z,3.33
2022-08-08T15:33:38.481Z,6.28
2022-08-08T15:36:19.650Z,5.68
2022-08-08T15:38:55.236Z,4.13
2022-08-08T15:41:24.941Z,3.72
2022-08-08T15:44:04.051Z,4.03
2022-08-08T15:46:34.976Z,6.38
2022-08-08T15:49:04.152Z,5.10
2022-08-08T15:51:33.510Z,5.28
2022-08-08T15:54:00.809Z,4.05
2022-08-08T15:56:27.472Z,3.72
2022-08-08T15:58:54.093Z,5.65
2022-08-08T16:01:22.478Z,4.20
2022-08-08T16:03:51.976Z,3.03
2022-08-08T16:06:28.446Z,4.20
2022-08-08T16:09:02.102Z,4.93
2022-08-08T16:13:05.366Z,7.63
2022-08-08T16:14:32.715Z,4.95
2022-08-08T16:17:00.218Z,3.33
2022-08-08T16:19:27.423Z,3.10
2022-08-08T16:21:57.271Z,3.63
2022-08-08T16:24:24.045Z,5.97
2022-08-08T16:26:50.919Z,4.30
2022-08-08T16:29:23.912Z,3.15
2022-08-08T16:32:12.125Z,4.45
2022-08-08T16:34:40.904Z,3.65
2022-08-08T16:37:07.550Z,3.05
2022-08-08T16:40:00.897Z,3.38
2022-08-08T16:42:25.061Z,5.85
2022-08-08T16:44:54.333Z,4.13
2022-08-08T16:47:41.427Z,4.30
2022-08-08T16:50:15.600Z,3.92
2022-08-08T16:55:06.262Z,3.20
2022-08-08T16:55:53.940Z,4.53
2022-08-08T16:58:25.502Z,3.38
2022-08-08T17:00:53.624Z,2.65
2022-08-08T17:03:25.449Z,2.60
2022-08-08T17:06:35.727Z,3.17
2022-08-08T17:08:55.499Z,7.35
2022-08-08T17:11:28.364Z,3.03
2022-08-08T17:14:17.933Z,3.75
2022-08-08T17:16:57.337Z,4.72
2022-08-08T17:19:28.829Z,4.38
2022-08-08T17:21:56.615Z,4.47
2022-08-08T17:24:27.770Z,4.80
2022-08-08T17:26:57.705Z,8.70
2022-08-08T17:29:25.483Z,2.10
2022-08-08T17:31:52.230Z,2.38
2022-08-08T17:34:36.855Z,5.10
2022-08-08T17:37:08.998Z,3.72
2022-08-08T17:40:05.173Z,4.20
2022-08-08T17:42:24.912Z,3.17
2022-08-08T17:44:52.685Z,1.80
2022-08-08T17:47:37.811Z,2.15
2022-08-08T17:50:07.873Z,2.30
2022-08-08T17:52:37.650Z,3.22
2022-08-08T17:56:05.084Z,12.90
2022-08-08T18:00:30.443Z,4.57
2022-08-08T18:03:08.657Z,7.97
2022-08-08T18:05:43.973Z,5.63
2022-08-08T18:08:24.802Z,13.80
2022-08-08T18:13:34.909Z,11.10
2022-08-08T18:16:08.197Z,9.27
2022-08-08T18:18:39.136Z,5.97
2022-08-08T18:21:10.755Z,6.05
2022-08-08T18:23:55.800Z,3.88
2022-08-08T18:26:22.940Z,2.05
2022-08-08T18:28:54.095Z,2.10
2022-08-08T18:31:22.439Z,2.03
2022-08-08T18:36:36.832Z,3.13
2022-08-08T18:39:04.764Z,3.25
2022-08-08T18:41:51.140Z,3.80
2022-08-08T18:44:19.356Z,6.30
2022-08-08T18:46:56.226Z,2.90
2022-08-08T18:49:24.510Z,5.40
2022-08-08T18:51:59.442Z,2.25
2022-08-08T18:54:29.715Z,1.30
2022-08-08T18:56:57.290Z,2.08
2022-08-08T18:59:24.167Z,3.88
2022-08-08T19:02:25.346Z,2.53
2022-08-08T19:04:38.331Z,1.13
2022-08-08T19:07:05.188Z,3.23
2022-08-08T19:09:49.412Z,3.47
2022-08-08T19:12:19.366Z,4.00
2022-08-08T19:14:53.384Z,3.20
2022-08-08T19:17:28.715Z,1.33
2022-08-08T19:20:02.182Z,3.58
2022-08-08T19:22:29.866Z,3.58
2022-08-08T19:25:03.537Z,2.00
2022-08-08T19:27:57.335Z,1.85
2022-08-08T19:30:27.126Z,2.60
2022-08-08T19:33:00.500Z,3.40
2022-08-08T19:35:45.653Z,2.03
2022-08-08T19:38:17.396Z,4.72
2022-08-08T19:40:55.728Z,2.58
2022-08-08T19:43:28.158Z,1.73
2022-08-08T19:46:00.041Z,3.33
2022-08-08T19:48:28.638Z,3.10
2022-08-08T19:50:57.634Z,3.03
2022-08-08T19:53:51.011Z,2.35
2022-08-08T19:56:13.589Z,1.83
2022-08-08T19:58:40.405Z,5.28
2022-08-08T20:01:17.314Z,2.08
2022-08-08T20:04:01.073Z,1.85
2022-08-08T20:06:29.947Z,3.88
2022-08-08T20:08:56.922Z,3.60
2022-08-08T20:11:24.489Z,3.05
2022-08-08T20:14:32.728Z,2.97
2022-08-08T20:16:40.717Z,4.60
2022-08-08T20:19:08.802Z,3.30
2022-08-08T20:21:38.177Z,2.60
2022-08-08T20:24:07.746Z,2.78
2022-08-08T20:26:34.920Z,2.30
2022-08-08T20:29:06.967Z,3.75
2022-08-08T20:32:06.985Z,2.28
2022-08-08T20:34:29.166Z,4.38
2022-08-08T20:36:59.473Z,2.30
2022-08-08T20:39:33.782Z,5.28
2022-08-08T20:42:09.069Z,3.30
2022-08-08T20:44:37.454Z,2.05
2022-08-08T20:49:32.470Z,3.53
2022-08-08T20:52:06.780Z,3.45
2022-08-08T20:54:33.422Z,2.30
2022-08-08T20:57:16.810Z,2.10
2022-08-08T20:59:45.358Z,2.65
2022-08-08T21:02:17.738Z,1.63
2022-08-08T21:07:46.940Z,2.22
2022-08-08T21:10:12.817Z,2.65
2022-08-08T21:12:41.424Z,3.17
2022-08-08T21:15:11.930Z,2.42
2022-08-08T21:17:45.087Z,3.33
2022-08-08T21:20:22.568Z,2.25
2022-08-08T21:23:02.293Z,3.92
2022-08-08T21:25:29.438Z,2.33
2022-08-08T21:28:13.323Z,3.55
2022-08-08T21:30:45.211Z,3.15
2022-08-08T21:33:16.231Z,1.77
2022-08-08T21:36:13.745Z,2.83
2022-08-08T21:38:29.482Z,7.22
2022-08-08T21:40:57.828Z,3.72
2022-08-08T21:43:33.101Z,2.50
2022-08-08T21:48:05.600Z,3.38
2022-08-08T21:48:55.748Z,3.97
2022-08-08T21:54:18.568Z,3.20
2022-08-08T21:54:31.287Z,2.42
2022-08-08T21:57:03.452Z,2.95
2022-08-08T22:00:01.286Z,1.95
2022-08-08T22:02:19.577Z,3.72
2022-08-08T22:04:55.651Z,2.05
2022-08-08T22:07:26.035Z,2.58
2022-08-08T22:10:01.599Z,2.60
2022-08-08T22:12:28.237Z,3.78
2022-08-08T22:14:54.860Z,4.28
2022-08-08T22:17:23.996Z,3.22
2022-08-08T22:20:12.379Z,2.15
2022-08-08T22:22:38.562Z,4.43
2022-08-08T22:25:24.503Z,2.40
2022-08-08T22:28:04.419Z,3.38
2022-08-08T22:30:43.942Z,2.35
2022-08-08T22:34:05.054Z,2.70
2022-08-08T22:36:12.372Z,2.43
2022-08-08T22:38:48.861Z,4.75
2022-08-08T22:41:20.969Z,4.40
2022-08-08T22:44:02.201Z,3.60
2022-08-08T22:46:33.108Z,1.85
2022-08-08T22:48:59.951Z,2.35
2022-08-08T22:51:29.115Z,4.18
2022-08-08T22:54:32.962Z,3.13
2022-08-08T22:56:43.038Z,2.55
2022-08-08T22:59:14.230Z,3.75
2022-08-08T23:02:03.847Z,4.07
2022-08-08T23:04:33.445Z,2.90
2022-08-08T23:07:02.657Z,4.30
2022-08-08T23:09:30.992Z,3.10
2022-08-08T23:12:18.480Z,3.83
2022-08-08T23:14:56.075Z,2.90
2022-08-08T23:17:23.794Z,3.47
2022-08-08T23:19:56.843Z,3.55
2022-08-08T23:22:23.653Z,3.28
2022-08-08T23:24:50.876Z,3.70
2022-08-08T23:27:39.168Z,5.78
2022-08-08T23:30:06.125Z,3.50
2022-08-08T23:32:41.536Z,4.68
2022-08-08T23:35:12.662Z,7.03
2022-08-08T23:38:01.285Z,4.65
2022-08-08T23:40:29.245Z,4.50
2022-08-08T23:42:56.944Z,6.97
2022-08-08T23:49:02.528Z,3.80
2022-08-08T23:49:05.067Z,5.50
2022-08-08T23:50:58.101Z,5.43
2022-08-08T23:54:05.855Z,6.90
2022-08-08T23:56:12.055Z,3.88
2022-08-08T23:58:38.935Z,4.93
